createdAt,value
2022-12-08T00:01:06.449Z,2.64
2022-12-08T00:06:26.737Z,2.27
2022-12-08T00:11:28.018Z,1.85
2022-12-08T00:16:29.280Z,2.08
2022-12-08T00:21:30.524Z,1.94
2022-12-08T00:26:31.810Z,2.14
2022-12-08T00:31:33.171Z,2.38
2022-12-08T00:36:34.509Z,1.98
2022-12-08T00:41:54.437Z,1.65
2022-12-08T00:46:55.729Z,1.52
2022-12-08T00:51:56.992Z,1.77
2022-12-08T00:56:58.212Z,1.88
2022-12-08T01:02:00.103Z,2.10
2022-12-08T01:07:01.387Z,2.12
2022-12-08T01:12:02.672Z,2.09
2022-12-08T01:17:03.971Z,2.21
2022-12-08T01:22:05.305Z,1.98
2022-12-08T01:27:06.527Z,2.11
2022-12-08T01:32:07.745Z,2.22
2022-12-08T01:37:09.012Z,2.09
2022-12-08T01:42:10.269Z,1.92
2022-12-08T01:47:11.571Z,2.17
2022-12-08T01:52:12.821Z,2.28
2022-12-08T01:57:14.073Z,2.39
2022-12-08T02:02:15.401Z,1.92
2022-12-08T02:07:16.660Z,1.99
2022-12-08T02:12:17.852Z,2.18
2022-12-08T02:17:19.117Z,2.19
2022-12-08T02:22:20.322Z,2.14
2022-12-08T02:27:21.558Z,2.28
2022-12-08T02:32:22.826Z,2.23
2022-12-08T02:37:24.073Z,2.16
2022-12-08T02:42:25.353Z,2.18
2022-12-08T02:47:26.553Z,2.15
2022-12-08T02:52:27.799Z,2.09
2022-12-08T02:57:29.082Z,2.35
2022-12-08T03:02:30.371Z,2.22
2022-12-08T03:07:31.620Z,2.19
2022-12-08T03:12:32.899Z,2.10
2022-12-08T03:17:34.212Z,2.11
2022-12-08T03:22:35.743Z,2.12
2022-12-08T03:27:37.267Z,2.02
2022-12-08T03:32:38.621Z,2.15
2022-12-08T03:37:39.904Z,2.44
2022-12-08T03:42:41.186Z,2.52
2022-12-08T03:47:42.486Z,2.58
2022-12-08T03:52:43.840Z,2.24
2022-12-08T03:57:45.141Z,2.41
2022-12-08T04:02:46.616Z,2.33
2022-12-08T04:07:48.073Z,2.37
2022-12-08T04:12:49.418Z,2.34
2022-12-08T04:17:50.713Z,2.28
2022-12-08T04:22:51.976Z,2.06
2022-12-08T04:27:53.455Z,2.24
2022-12-08T04:32:54.712Z,1.97
2022-12-08T04:37:55.974Z,2.18
2022-12-08T04:42:57.180Z,2.18
2022-12-08T04:47:58.391Z,2.29
2022-12-08T04:52:59.638Z,2.13
2022-12-08T04:58:00.852Z,2.14
2022-12-08T05:03:02.197Z,1.94
2022-12-08T05:08:03.598Z,1.95
2022-12-08T05:13:04.980Z,2.11
2022-12-08T05:18:07.302Z,2.15
2022-12-08T05:23:08.529Z,2.22
2022-12-08T05:28:39.711Z,2.24
2022-12-08T05:33:31.016Z,2.26
2022-12-08T05:38:32.267Z,2.08
2022-12-08T05:43:33.494Z,1.97
2022-12-08T05:48:34.782Z,1.62
2022-12-08T05:53:36.057Z,1.77
2022-12-08T05:58:37.346Z,1.58
2022-12-08T06:03:38.607Z,1.43
2022-12-08T06:08:39.897Z,1.63
2022-12-08T06:13:41.107Z,1.78
2022-12-08T06:18:42.418Z,1.85
2022-12-08T06:23:43.642Z,1.93
2022-12-08T06:28:44.994Z,1.83
2022-12-08T06:33:46.254Z,1.71
2022-12-08T06:38:47.612Z,1.69
2022-12-08T06:43:48.856Z,1.46
2022-12-08T06:48:50.697Z,1.54
2022-12-08T06:53:52.056Z,1.70
2022-12-08T06:58:53.403Z,1.56
2022-12-08T07:03:58.989Z,1.30
2022-12-08T07:09:00.719Z,1.09
2022-12-08T07:14:03.050Z,1.15
2022-12-08T07:19:04.305Z,1.21
2022-12-08T07:24:05.612Z,1.02
2022-12-08T07:29:06.862Z,0.59
2022-12-08T07:34:08.126Z,0.48
2022-12-08T07:39:09.390Z,0.56
2022-12-08T07:44:10.643Z,0.83
2022-12-08T07:49:12.013Z,0.84
2022-12-08T07:54:13.254Z,0.58
2022-12-08T07:59:14.725Z,0.88
2022-12-08T08:04:16.064Z,1.11
2022-12-08T08:09:17.337Z,1.14
2022-12-08T08:14:18.589Z,1.18
2022-12-08T08:19:19.918Z,1.05
2022-12-08T08:24:22.186Z,0.84
2022-12-08T08:29:23.530Z,0.95
2022-12-08T08:34:24.794Z,0.79
2022-12-08T08:39:26.539Z,0.37
2022-12-08T08:44:27.899Z,0.42
2022-12-08T08:49:29.208Z,0.73
2022-12-08T08:54:30.485Z,0.84
2022-12-08T08:59:31.767Z,0.77
2022-12-08T09:04:33.102Z,1.02
2022-12-08T09:09:34.425Z,0.90
2022-12-08T09:14:35.677Z,0.99
2022-12-08T09:19:37.219Z,1.01
2022-12-08T09:24:38.464Z,1.14
2022-12-08T09:29:39.673Z,0.98
2022-12-08T09:34:40.934Z,1.09
2022-12-08T09:39:42.187Z,1.12
2022-12-08T09:44:44.309Z,1.07
2022-12-08T09:49:54.517Z,1.30
2022-12-08T09:54:55.754Z,1.25
2022-12-08T09:59:57.087Z,1.22
2022-12-08T10:04:58.448Z,1.31
2022-12-08T10:09:59.726Z,2.41
2022-12-08T10:15:00.950Z,1.90
2022-12-08T10:20:02.362Z,1.74
2022-12-08T10:25:03.810Z,1.74
2022-12-08T10:30:05.417Z,1.89
2022-12-08T10:35:07.159Z,1.95
2022-12-08T10:40:08.658Z,2.17
2022-12-08T10:45:09.964Z,2.30
2022-12-08T10:50:11.266Z,1.95
2022-12-08T10:55:12.461Z,1.96
2022-12-08T11:00:14.567Z,2.13
2022-12-08T11:05:16.068Z,1.85
2022-12-08T11:10:17.353Z,1.81
2022-12-08T11:15:18.678Z,1.94
2022-12-08T11:20:20.030Z,2.19
2022-12-08T11:25:21.272Z,2.36
2022-12-08T11:30:22.573Z,2.37
2022-12-08T11:35:23.911Z,2.27
2022-12-08T11:40:25.174Z,1.91
2022-12-08T11:45:26.418Z,2.27
2022-12-08T11:50:27.639Z,2.52
2022-12-08T11:55:33.790Z,2.72
2022-12-08T12:00:38.488Z,2.89
2022-12-08T12:06:08.683Z,2.75
2022-12-08T12:11:00.929Z,2.84
2022-12-08T12:16:02.796Z,2.71
2022-12-08T12:21:04.018Z,2.63
2022-12-08T12:26:05.301Z,2.64
2022-12-08T12:31:06.668Z,2.84
2022-12-08T12:36:08.011Z,2.62
2022-12-08T12:41:09.317Z,2.78
2022-12-08T12:46:10.645Z,2.63
2022-12-08T12:51:12.011Z,2.83
2022-12-08T12:56:13.237Z,2.67
2022-12-08T13:01:14.460Z,2.78
2022-12-08T13:06:15.786Z,2.77
2022-12-08T13:11:17.018Z,3.16
2022-12-08T13:16:19.611Z,3.00
2022-12-08T13:21:21.075Z,3.10
2022-12-08T13:26:22.324Z,2.98
2022-12-08T13:31:23.660Z,2.84
2022-12-08T13:36:24.914Z,2.43
2022-12-08T13:41:26.160Z,2.77
2022-12-08T13:47:09.341Z,3.01
2022-12-08T13:57:12.439Z,3.20
2022-12-08T14:02:14.130Z,3.15
2022-12-08T14:07:15.510Z,3.20
2022-12-08T14:12:16.734Z,3.07
2022-12-08T14:17:17.974Z,3.04
2022-12-08T14:22:19.310Z,2.81
2022-12-08T14:27:20.599Z,3.11
2022-12-08T14:32:21.906Z,3.03
2022-12-08T14:37:23.199Z,2.86
2022-12-08T14:42:24.510Z,2.77
2022-12-08T14:47:25.750Z,3.18
2022-12-08T14:52:26.957Z,3.37
2022-12-08T14:57:28.194Z,3.08
2022-12-08T15:02:29.434Z,3.17
2022-12-08T15:07:30.664Z,3.33
2022-12-08T15:12:33.349Z,2.58
2022-12-08T15:17:34.594Z,2.35
2022-12-08T15:22:35.835Z,1.91
2022-12-08T15:27:50.250Z,1.79
2022-12-08T15:32:54.116Z,1.90
2022-12-08T15:37:55.350Z,1.95
2022-12-08T15:42:56.658Z,2.01
2022-12-08T15:47:57.914Z,2.09
2022-12-08T15:52:59.287Z,2.00
2022-12-08T16:08:56.327Z,2.07
2022-12-08T16:14:33.841Z,1.94
2022-12-08T16:19:25.743Z,2.02
2022-12-08T16:24:27.010Z,1.97
2022-12-08T16:29:28.228Z,2.22
2022-12-08T16:34:29.675Z,2.16
2022-12-08T16:39:30.989Z,2.41
2022-12-08T16:44:32.221Z,2.50
2022-12-08T16:49:33.459Z,2.52
2022-12-08T16:54:34.801Z,2.72
2022-12-08T16:59:36.013Z,2.56
2022-12-08T17:04:37.328Z,2.55
2022-12-08T17:09:38.630Z,2.15
2022-12-08T17:14:39.910Z,2.60
2022-12-08T17:19:41.150Z,2.77
2022-12-08T17:24:42.368Z,2.64
2022-12-08T17:29:43.651Z,2.78
2022-12-08T17:34:45.020Z,2.76
2022-12-08T17:39:46.283Z,2.93
2022-12-08T17:44:47.583Z,2.23
2022-12-08T17:49:48.841Z,1.97
2022-12-08T17:54:53.290Z,2.26
2022-12-08T17:59:54.595Z,2.27
2022-12-08T18:04:55.856Z,2.44
2022-12-08T18:09:57.196Z,2.55
2022-12-08T18:14:58.466Z,2.67
2022-12-08T18:19:59.722Z,2.87
2022-12-08T18:25:00.977Z,2.38
2022-12-08T18:30:02.773Z,2.33
2022-12-08T18:35:04.232Z,2.71
2022-12-08T18:40:05.788Z,2.97
2022-12-08T18:45:07.192Z,2.85
2022-12-08T18:50:08.548Z,3.06
2022-12-08T18:55:10.006Z,2.21
2022-12-08T19:00:11.296Z,1.98
2022-12-08T19:05:12.604Z,1.69
2022-12-08T19:10:13.881Z,1.58
2022-12-08T19:15:15.163Z,1.95
2022-12-08T19:20:16.432Z,1.92
2022-12-08T19:25:24.550Z,1.60
2022-12-08T19:30:26.461Z,1.51
2022-12-08T19:35:31.004Z,1.41
2022-12-08T19:40:51.760Z,1.74
2022-12-08T19:45:53.167Z,2.33
2022-12-08T19:50:54.518Z,2.60
2022-12-08T19:55:58.863Z,2.33
2022-12-08T20:01:00.158Z,1.85
2022-12-08T20:06:03.699Z,2.07
2022-12-08T20:11:09.377Z,2.06
2022-12-08T20:16:11.289Z,2.50
2022-12-08T20:21:12.690Z,2.14
2022-12-08T20:26:14.020Z,1.49
2022-12-08T20:31:15.433Z,1.98
2022-12-08T20:36:18.769Z,1.61
2022-12-08T20:41:20.147Z,1.73
2022-12-08T20:46:21.529Z,1.95
2022-12-08T20:51:26.956Z,1.78
2022-12-08T20:56:34.375Z,1.83
2022-12-08T21:01:35.837Z,2.45
2022-12-08T21:06:37.220Z,2.07
2022-12-08T21:11:38.556Z,2.72
2022-12-08T21:16:39.932Z,2.51
2022-12-08T21:21:41.630Z,2.39
2022-12-08T21:26:43.064Z,2.74
2022-12-08T21:31:44.720Z,2.52
2022-12-08T21:36:46.364Z,3.00
2022-12-08T21:42:07.660Z,3.19
2022-12-08T21:47:08.976Z,2.98
2022-12-08T21:52:10.419Z,2.86
2022-12-08T21:57:13.487Z,3.24
2022-12-08T22:02:19.600Z,3.45
2022-12-08T22:07:22.435Z,3.39
2022-12-08T22:12:23.913Z,3.32
2022-12-08T22:17:25.312Z,3.50
2022-12-08T22:22:26.856Z,3.08
2022-12-08T22:27:28.223Z,3.31
2022-12-08T22:32:29.584Z,3.10
2022-12-08T22:37:30.827Z,3.25
2022-12-08T22:42:32.219Z,3.12
2022-12-08T22:47:33.481Z,2.83
2022-12-08T22:52:34.743Z,2.91
2022-12-08T22:57:36.014Z,2.44
2022-12-08T23:02:37.471Z,2.34
2022-12-08T23:07:38.965Z,2.60
2022-12-08T23:12:40.314Z,2.46
2022-12-08T23:17:41.807Z,2.65
2022-12-08T23:22:43.267Z,2.53
2022-12-08T23:27:44.645Z,2.08
2022-12-08T23:32:46.174Z,1.87
2022-12-08T23:37:47.439Z,2.19
2022-12-08T23:42:48.664Z,2.00
2022-12-08T23:47:49.996Z,2.43
2022-12-08T23:52:51.368Z,2.92
2022-12-08T23:57:52.873Z,3.12
